Time;durP1;ratioP1;P1;durP2;ratioP2;P2;SDS_P1;SDS_P2;PMS_P1;PMS_P2;Temp;Humidity;BMP_temperature;BMP_pressure;BME280_temperature;BME280_humidity;BME280_pressure;Samples;Min_cycle;Max_cycle;Signal;HPM_P1;HPM_P2
2021/01/08 00:00:07;;;;;;;;;;;6.00;81.70;;;;;;5040683;28;19913;-77
2021/01/08 00:02:37;;;;;;;;;;;6.00;81.70;;;;;;5045421;28;19908;-77
2021/01/08 00:05:03;;;;;;;;;;;6.00;81.70;;;;;;5034205;28;19927;-77
2021/01/08 00:07:36;;;;;;;;;;;6.00;81.70;;;;;;5038512;28;19970;-77
2021/01/08 00:10:03;;;;;;;;;;;6.00;81.70;;;;;;5035037;28;19916;-77
2021/01/08 00:12:29;;;;;;;;;;;6.00;81.70;;;;;;5037471;28;19905;-77
2021/01/08 00:14:55;;;;;;;;;;;6.00;81.70;;;;;;5036542;28;19912;-80
2021/01/08 00:17:20;;;;;;;;;;;6.00;81.70;;;;;;5033313;28;20427;-77
2021/01/08 00:19:46;;;;;;;;;;;6.00;81.70;;;;;;5036058;28;19909;-77
2021/01/08 00:22:11;;;;;;;;;;;6.00;81.70;;;;;;5045816;28;20444;-78
2021/01/08 00:24:37;;;;;;;;;;;6.00;81.60;;;;;;5052735;28;19912;-77
2021/01/08 00:27:03;;;;;;;;;;;6.00;81.70;;;;;;5052933;28;20582;-77
2021/01/08 00:29:29;;;;;;;;;;;6.00;81.70;;;;;;5052564;28;19950;-78
2021/01/08 00:31:54;;;;;;;;;;;6.00;81.70;;;;;;5053178;28;20428;-77
2021/01/08 00:34:20;;;;;;;;;;;6.00;81.70;;;;;;5037823;28;19915;-77
2021/01/08 00:36:47;;;;;;;;;;;6.00;81.70;;;;;;5024385;28;19913;-78
2021/01/08 00:39:12;;;;;;;;;;;6.00;81.70;;;;;;5040112;28;19909;-79
2021/01/08 00:41:38;;;;;;;;;;;6.00;81.70;;;;;;5046420;28;19928;-77
2021/01/08 00:44:04;;;;;;;;;;;6.00;81.70;;;;;;5017996;28;20346;-77
2021/01/08 00:46:33;;;;;;;;;;;6.00;81.70;;;;;;5042049;28;20007;-76
2021/01/08 00:49:00;;;;;;;;;;;6.00;81.70;;;;;;5052231;28;20380;-77
2021/01/08 00:51:26;;;;;;;;;;;6.00;82.30;;;;;;5034420;28;19955;-77
2021/01/08 00:53:52;;;;;;;;;;;6.00;81.70;;;;;;5052090;28;19917;-77
2021/01/08 00:56:18;;;;;;;;;;;6.00;81.70;;;;;;5030092;28;19915;-80
2021/01/08 00:58:45;;;;;;;;;;;6.00;81.70;;;;;;5032342;28;19927;-78
2021/01/08 01:01:11;;;;;;;;;;;6.00;81.70;;;;;;5039057;28;20015;-77
2021/01/08 01:03:37;;;;;;;;;;;6.00;81.70;;;;;;5038036;28;19948;-77
2021/01/08 01:06:02;;;;;;;;;;;6.00;81.70;;;;;;5035631;28;19912;-77
2021/01/08 01:08:28;;;;;;;;;;;6.00;81.70;;;;;;5048810;28;19992;-77
2021/01/08 01:10:53;;;;;;;;;;;6.00;81.70;;;;;;5049084;28;19909;-77
2021/01/08 01:13:19;;;;;;;;;;;6.00;81.70;;;;;;5032875;28;20280;-82
2021/01/08 01:15:45;;;;;;;;;;;6.00;81.70;;;;;;5035761;28;20016;-79
2021/01/08 01:18:10;;;;;;;;;;;6.00;81.70;;;;;;5019069;28;20455;-81
2021/01/08 01:20:36;;;;;;;;;;;6.00;81.70;;;;;;5049131;28;19913;-78
2021/01/08 01:23:02;;;;;;;;;;;6.00;82.30;;;;;;5046275;28;19910;-77
2021/01/08 01:25:27;;;;;;;;;;;6.00;81.70;;;;;;5048355;28;19913;-76
2021/01/08 01:27:53;;;;;;;;;;;6.00;81.70;;;;;;5036000;28;19920;-77
2021/01/08 01:30:19;;;;;;;;;;;6.00;81.70;;;;;;5020108;28;19913;-77
2021/01/08 01:32:44;;;;;;;;;;;6.00;81.70;;;;;;5036037;28;19918;-77
2021/01/08 01:35:10;;;;;;;;;;;6.00;81.70;;;;;;5024403;28;19996;-77
2021/01/08 01:37:36;;;;;;;;;;;6.00;81.70;;;;;;5036947;28;20408;-77
2021/01/08 01:40:01;;;;;;;;;;;5.90;81.70;;;;;;5031914;28;19920;-77
2021/01/08 01:42:27;;;;;;;;;;;5.90;81.70;;;;;;5044435;28;19954;-77
2021/01/08 01:44:53;;;;;;;;;;;5.90;81.70;;;;;;5035145;28;19963;-76
2021/01/08 01:47:18;;;;;;;;;;;6.00;81.70;;;;;;5051801;28;19924;-77
2021/01/08 01:49:44;;;;;;;;;;;6.00;81.70;;;;;;5031232;28;21070;-78
2021/01/08 01:52:09;;;;;;;;;;;5.90;81.70;;;;;;5037835;28;19959;-77
2021/01/08 01:54:35;;;;;;;;;;;5.90;81.70;;;;;;5042237;28;19956;-77
2021/01/08 01:57:01;;;;;;;;;;;5.90;81.70;;;;;;5051891;28;20273;-77
2021/01/08 01:59:26;;;;;;;;;;;5.90;81.70;;;;;;5034266;28;19917;-77
2021/01/08 02:01:52;;;;;;;;;;;5.90;81.70;;;;;;5039534;28;20326;-77
2021/01/08 02:04:18;;;;;;;;;;;5.90;81.70;;;;;;5060026;28;20274;-76
2021/01/08 02:06:45;;;;;;;;;;;5.90;81.70;;;;;;5041322;28;19915;-77
2021/01/08 02:09:12;;;;;;;;;;;5.90;81.70;;;;;;5049272;28;19916;-77
2021/01/08 02:11:40;;;;;;;;;;;5.90;81.70;;;;;;5052479;28;20361;-77
2021/01/08 02:14:08;;;;;;;;;;;5.90;81.70;;;;;;5050533;28;19913;-78
2021/01/08 02:16:35;;;;;;;;;;;5.90;81.70;;;;;;5038011;28;19912;-77
2021/01/08 02:19:02;;;;;;;;;;;5.90;81.70;;;;;;5056014;28;19915;-76
2021/01/08 02:21:35;;;;;;;;;;;5.90;81.70;;;;;;5052759;28;19909;-77
2021/01/08 02:24:17;;;;;;;;;;;5.90;81.70;;;;;;5057480;28;19931;-77
2021/01/08 02:26:42;;;;;;;;;;;5.90;81.70;;;;;;5049542;28;19913;-77
2021/01/08 02:29:09;;;;;;;;;;;5.90;81.70;;;;;;5049784;28;19913;-77
2021/01/08 02:31:35;;;;;;;;;;;5.90;81.70;;;;;;5044952;28;19919;-78
2021/01/08 02:34:01;;;;;;;;;;;5.90;81.70;;;;;;5045744;28;20008;-77
2021/01/08 02:36:27;;;;;;;;;;;5.90;82.30;;;;;;5041137;28;19913;-79
2021/01/08 02:38:53;;;;;;;;;;;5.90;81.70;;;;;;5021730;28;19959;-77
2021/01/08 02:41:19;;;;;;;;;;;5.90;81.70;;;;;;5055322;28;19909;-77
2021/01/08 02:43:45;;;;;;;;;;;5.90;81.70;;;;;;5021431;28;19916;-76
2021/01/08 02:46:11;;;;;;;;;;;5.90;81.70;;;;;;5039503;28;19913;-77
2021/01/08 02:48:37;;;;;;;;;;;5.90;81.70;;;;;;5032414;28;19966;-77
2021/01/08 02:51:02;;;;;;;;;;;5.90;81.70;;;;;;5051981;28;20314;-77
2021/01/08 02:53:30;;;;;;;;;;;5.90;81.70;;;;;;5037704;28;21494;-81
2021/01/08 02:55:57;;;;;;;;;;;5.90;81.70;;;;;;5051283;28;20051;-78
2021/01/08 02:58:24;;;;;;;;;;;5.90;81.80;;;;;;5039772;28;19972;-77
2021/01/08 03:00:50;;;;;;;;;;;5.90;81.70;;;;;;5047465;28;20028;-77
2021/01/08 03:03:16;;;;;;;;;;;5.90;81.80;;;;;;5057103;28;20011;-77
2021/01/08 03:05:41;;;;;;;;;;;5.80;81.70;;;;;;5055071;28;19919;-77
2021/01/08 03:08:07;;;;;;;;;;;5.90;81.70;;;;;;5037359;28;19912;-80
2021/01/08 03:10:33;;;;;;;;;;;5.90;81.70;;;;;;5036914;28;19917;-77
2021/01/08 03:13:06;;;;;;;;;;;5.80;81.70;;;;;;5051282;28;19913;-79
2021/01/08 03:15:31;;;;;;;;;;;5.80;81.70;;;;;;5045940;28;19952;-78
2021/01/08 03:17:57;;;;;;;;;;;5.80;81.70;;;;;;5045575;28;19940;-75
2021/01/08 03:20:23;;;;;;;;;;;5.80;81.70;;;;;;5037348;28;20277;-74
2021/01/08 03:22:48;;;;;;;;;;;5.80;81.70;;;;;;5036057;28;19913;-75
2021/01/08 03:25:14;;;;;;;;;;;5.80;81.70;;;;;;5041244;28;19940;-75
2021/01/08 03:27:39;;;;;;;;;;;5.80;81.70;;;;;;5036953;28;19951;-75
2021/01/08 03:30:06;;;;;;;;;;;5.80;81.70;;;;;;5054714;28;19921;-75
2021/01/08 03:32:32;;;;;;;;;;;5.80;81.80;;;;;;5050977;28;19912;-81
2021/01/08 03:34:58;;;;;;;;;;;5.80;81.80;;;;;;5034096;28;19920;-75
2021/01/08 03:37:23;;;;;;;;;;;5.80;81.70;;;;;;5037286;28;19917;-75
2021/01/08 03:39:49;;;;;;;;;;;5.80;81.70;;;;;;5038752;28;19920;-75
2021/01/08 03:42:15;;;;;;;;;;;5.80;81.70;;;;;;5024191;28;19912;-74
2021/01/08 03:44:40;;;;;;;;;;;5.80;81.70;;;;;;5054737;28;19909;-75
2021/01/08 03:47:06;;;;;;;;;;;5.80;81.80;;;;;;5033770;28;19909;-75
2021/01/08 03:49:37;;;;;;;;;;;5.80;81.80;;;;;;5053449;28;20367;-75
2021/01/08 03:52:04;;;;;;;;;;;5.80;81.80;;;;;;5021832;28;19913;-75
2021/01/08 03:54:30;;;;;;;;;;;5.80;81.80;;;;;;5044209;28;19917;-74
2021/01/08 03:56:55;;;;;;;;;;;5.80;81.80;;;;;;5031187;28;19924;-79
2021/01/08 03:59:21;;;;;;;;;;;5.70;81.80;;;;;;5036796;28;20361;-74
2021/01/08 04:01:46;;;;;;;;;;;5.80;81.80;;;;;;5036666;28;19955;-74
2021/01/08 04:04:12;;;;;;;;;;;5.80;81.80;;;;;;5018743;28;20384;-80
2021/01/08 04:06:37;;;;;;;;;;;5.80;81.80;;;;;;5042097;28;19975;-77
2021/01/08 04:09:03;;;;;;;;;;;5.80;81.80;;;;;;5047035;28;19920;-77
2021/01/08 04:11:29;;;;;;;;;;;5.80;81.80;;;;;;5022661;28;20397;-76
2021/01/08 04:13:54;;;;;;;;;;;5.80;81.80;;;;;;5048225;28;19916;-77
2021/01/08 04:16:20;;;;;;;;;;;5.70;81.70;;;;;;5032192;28;19913;-77
2021/01/08 04:18:45;;;;;;;;;;;5.80;81.70;;;;;;5044358;28;19913;-77
2021/01/08 04:21:11;;;;;;;;;;;5.70;81.70;;;;;;5035412;28;19905;-77
2021/01/08 04:23:39;;;;;;;;;;;5.80;81.70;;;;;;5049171;28;19944;-81
2021/01/08 04:26:06;;;;;;;;;;;5.70;81.70;;;;;;5040321;28;19910;-77
2021/01/08 04:28:31;;;;;;;;;;;5.80;81.80;;;;;;5052442;28;19962;-78
2021/01/08 04:30:57;;;;;;;;;;;5.80;81.80;;;;;;5051926;28;20343;-79
2021/01/08 04:33:23;;;;;;;;;;;5.80;81.70;;;;;;5051666;28;19920;-76
2021/01/08 04:35:48;;;;;;;;;;;5.80;81.80;;;;;;5052137;28;19905;-77
2021/01/08 04:38:14;;;;;;;;;;;5.70;81.70;;;;;;5052506;28;19913;-77
2021/01/08 04:40:39;;;;;;;;;;;5.80;81.70;;;;;;5052011;28;19939;-79
2021/01/08 04:43:05;;;;;;;;;;;5.70;81.70;;;;;;5052197;28;19916;-77
2021/01/08 04:45:31;;;;;;;;;;;5.70;81.70;;;;;;5053976;28;19908;-77
2021/01/08 04:47:57;;;;;;;;;;;5.80;81.90;;;;;;5049348;28;20494;-79
2021/01/08 04:50:24;;;;;;;;;;;5.70;81.70;;;;;;5052171;28;19908;-77
2021/01/08 04:52:50;;;;;;;;;;;5.80;81.80;;;;;;5035307;28;19909;-76
2021/01/08 04:55:16;;;;;;;;;;;5.70;81.70;;;;;;5051805;28;20023;-76
2021/01/08 04:57:43;;;;;;;;;;;5.80;81.70;;;;;;5047968;28;19916;-78
2021/01/08 05:00:08;;;;;;;;;;;5.70;81.70;;;;;;5038284;28;19913;-77
2021/01/08 05:02:34;;;;;;;;;;;5.70;81.70;;;;;;5035761;28;19954;-77
2021/01/08 05:05:00;;;;;;;;;;;5.80;81.70;;;;;;5035638;28;19919;-77
2021/01/08 05:07:26;;;;;;;;;;;5.80;81.80;;;;;;5049005;28;19917;-77
2021/01/08 05:09:51;;;;;;;;;;;5.80;81.70;;;;;;5023023;28;19989;-77
2021/01/08 05:12:17;;;;;;;;;;;5.70;81.70;;;;;;5034426;28;20375;-77
2021/01/08 05:14:43;;;;;;;;;;;5.70;81.70;;;;;;5041272;28;19909;-77
2021/01/08 05:17:09;;;;;;;;;;;5.70;81.70;;;;;;5033835;28;20093;-77
2021/01/08 05:19:36;;;;;;;;;;;5.80;81.80;;;;;;5033125;28;20494;-77
2021/01/08 05:22:02;;;;;;;;;;;5.70;81.70;;;;;;5031655;28;20544;-77
2021/01/08 05:24:28;;;;;;;;;;;5.70;81.70;;;;;;5035357;28;19909;-77
2021/01/08 05:26:55;;;;;;;;;;;5.70;81.70;;;;;;5047788;28;19909;-78
2021/01/08 05:29:21;;;;;;;;;;;5.70;81.70;;;;;;5050238;28;20003;-77
2021/01/08 05:31:47;;;;;;;;;;;5.70;81.70;;;;;;5039953;28;19913;-76
2021/01/08 05:34:22;;;;;;;;;;;5.70;81.70;;;;;;5045262;28;20357;-76
2021/01/08 05:36:49;;;;;;;;;;;5.80;81.80;;;;;;5038912;28;19936;-77
2021/01/08 05:39:18;;;;;;;;;;;5.70;81.70;;;;;;5040052;28;19904;-77
2021/01/08 05:41:44;;;;;;;;;;;5.70;81.70;;;;;;5039051;28;19908;-81
2021/01/08 05:44:09;;;;;;;;;;;5.70;81.70;;;;;;5040596;28;19916;-77
2021/01/08 05:46:37;;;;;;;;;;;5.70;81.70;;;;;;5029493;28;19917;-77
2021/01/08 05:49:04;;;;;;;;;;;5.70;81.70;;;;;;5040631;28;20424;-81
2021/01/08 05:51:38;;;;;;;;;;;5.70;81.70;;;;;;5040096;28;19913;-76
2021/01/08 05:54:04;;;;;;;;;;;5.70;81.70;;;;;;5041244;28;19920;-77
2021/01/08 05:56:36;;;;;;;;;;;5.70;82.40;;;;;;5020363;28;19936;-77
2021/01/08 05:59:04;;;;;;;;;;;5.70;81.80;;;;;;5048517;28;20276;-76
2021/01/08 06:01:29;;;;;;;;;;;5.70;81.70;;;;;;5033728;28;19943;-77
2021/01/08 06:03:55;;;;;;;;;;;5.70;81.70;;;;;;5051311;28;19963;-77
2021/01/08 06:06:23;;;;;;;;;;;5.70;81.70;;;;;;5051034;28;19912;-77
2021/01/08 06:08:50;;;;;;;;;;;5.70;81.70;;;;;;5047311;28;20277;-77
2021/01/08 06:11:29;;;;;;;;;;;5.70;81.70;;;;;;5041919;28;20026;-81
2021/01/08 06:13:55;;;;;;;;;;;5.70;81.70;;;;;;5043939;28;19919;-79
2021/01/08 06:16:22;;;;;;;;;;;5.70;81.70;;;;;;5034839;28;20326;-79
2021/01/08 06:18:48;;;;;;;;;;;5.70;81.70;;;;;;5036060;28;19917;-81
2021/01/08 06:21:14;;;;;;;;;;;5.70;81.70;;;;;;5050233;28;20517;-78
2021/01/08 06:23:41;;;;;;;;;;;5.70;81.70;;;;;;5042512;28;19913;-77
2021/01/08 06:26:08;;;;;;;;;;;5.70;81.70;;;;;;5031917;28;19905;-77
2021/01/08 06:28:35;;;;;;;;;;;5.70;81.80;;;;;;5039699;28;19913;-77
2021/01/08 06:31:05;;;;;;;;;;;5.70;81.70;;;;;;5043528;28;19916;-77
2021/01/08 06:33:34;;;;;;;;;;;5.70;81.70;;;;;;5022548;28;20376;-77
2021/01/08 06:36:02;;;;;;;;;;;5.70;81.70;;;;;;5047962;28;20003;-77
2021/01/08 06:38:29;;;;;;;;;;;5.70;81.70;;;;;;5021110;28;19912;-77
2021/01/08 06:40:58;;;;;;;;;;;5.70;81.80;;;;;;5034024;28;20018;-77
2021/01/08 06:43:25;;;;;;;;;;;5.70;82.40;;;;;;5039980;28;19931;-77
2021/01/08 06:45:59;;;;;;;;;;;5.70;81.80;;;;;;5044342;28;19995;-79
2021/01/08 06:48:25;;;;;;;;;;;5.70;81.80;;;;;;5043773;28;19913;-81
2021/01/08 06:50:52;;;;;;;;;;;5.70;81.80;;;;;;5040332;28;20254;-84
2021/01/08 06:53:18;;;;;;;;;;;5.70;81.70;;;;;;5066638;28;19964;-78
2021/01/08 06:55:45;;;;;;;;;;;5.70;81.80;;;;;;5043543;28;19970;-78
2021/01/08 06:58:17;;;;;;;;;;;5.70;81.70;;;;;;5069694;28;20352;-79
2021/01/08 07:00:44;;;;;;;;;;;5.70;81.70;;;;;;5042050;28;20005;-79
2021/01/08 07:03:10;;;;;;;;;;;5.70;81.80;;;;;;5054240;28;19915;-78
2021/01/08 07:05:36;;;;;;;;;;;5.70;81.70;;;;;;5037944;28;19991;-78
2021/01/08 07:08:02;;;;;;;;;;;5.70;81.70;;;;;;5053799;28;19912;-78
2021/01/08 07:10:30;;;;;;;;;;;5.70;81.70;;;;;;5038075;28;19913;-78
2021/01/08 07:12:56;;;;;;;;;;;5.70;81.80;;;;;;5034229;28;19909;-79
2021/01/08 07:15:21;;;;;;;;;;;5.70;81.80;;;;;;5030484;28;19959;-78
2021/01/08 07:18:05;;;;;;;;;;;5.70;81.70;;;;;;5030500;28;19909;-79
2021/01/08 07:20:31;;;;;;;;;;;5.70;81.80;;;;;;5051283;28;19913;-78
2021/01/08 07:22:57;;;;;;;;;;;5.70;81.70;;;;;;5039688;28;20444;-77
2021/01/08 07:25:24;;;;;;;;;;;5.70;81.70;;;;;;5044822;28;19905;-78
2021/01/08 07:27:50;;;;;;;;;;;5.70;81.70;;;;;;5045517;28;19913;-79
2021/01/08 07:30:17;;;;;;;;;;;5.70;81.80;;;;;;5048448;28;20339;-80
2021/01/08 07:32:42;;;;;;;;;;;5.70;81.80;;;;;;5039789;28;20354;-79
2021/01/08 07:35:20;;;;;;;;;;;5.70;81.70;;;;;;5053505;28;19904;-78
2021/01/08 07:37:55;;;;;;;;;;;5.70;81.70;;;;;;5054013;28;20099;-78
2021/01/08 07:40:21;;;;;;;;;;;5.70;81.80;;;;;;5035818;28;19909;-79
2021/01/08 07:42:57;;;;;;;;;;;5.70;81.70;;;;;;5047863;28;19905;-79
2021/01/08 07:45:23;;;;;;;;;;;5.70;81.80;;;;;;5037045;28;20383;-79
2021/01/08 07:47:49;;;;;;;;;;;5.70;81.80;;;;;;5001604;28;19919;-78
2021/01/08 07:50:15;;;;;;;;;;;5.70;81.80;;;;;;5033726;28;20015;-79
2021/01/08 07:52:44;;;;;;;;;;;5.70;81.80;;;;;;5049641;28;19916;-78
2021/01/08 07:55:11;;;;;;;;;;;5.70;81.90;;;;;;5053288;28;19924;-79
2021/01/08 07:57:55;;;;;;;;;;;5.70;81.80;;;;;;5045972;28;19909;-78
2021/01/08 08:00:23;;;;;;;;;;;5.70;81.80;;;;;;5048627;28;19909;-78
2021/01/08 08:02:49;;;;;;;;;;;5.70;81.80;;;;;;5033744;28;20323;-78
2021/01/08 08:05:15;;;;;;;;;;;5.70;81.80;;;;;;5033868;28;19919;-80
2021/01/08 08:07:41;;;;;;;;;;;5.70;81.80;;;;;;5033534;28;20388;-79
2021/01/08 08:10:07;;;;;;;;;;;5.70;81.80;;;;;;5047358;28;19917;-79
2021/01/08 08:12:32;;;;;;;;;;;5.70;81.80;;;;;;5037018;28;19909;-78
2021/01/08 08:15:01;;;;;;;;;;;5.70;81.80;;;;;;5044863;28;19913;-78
2021/01/08 08:17:27;;;;;;;;;;;5.70;82.40;;;;;;5048297;28;20008;-78
2021/01/08 08:19:52;;;;;;;;;;;5.70;82.40;;;;;;5038647;28;20393;-81
2021/01/08 08:22:33;;;;;;;;;;;5.70;81.80;;;;;;5046690;28;19963;-78
2021/01/08 08:24:59;;;;;;;;;;;5.70;81.80;;;;;;5051153;28;19908;-78
2021/01/08 08:27:24;;;;;;;;;;;5.70;81.70;;;;;;5050193;28;19967;-78
2021/01/08 08:29:50;;;;;;;;;;;5.70;81.70;;;;;;5030654;28;19917;-79
2021/01/08 08:32:17;;;;;;;;;;;5.70;81.70;;;;;;5044390;28;20003;-79
2021/01/08 08:34:42;;;;;;;;;;;5.70;81.70;;;;;;5052872;28;19935;-79
2021/01/08 08:37:09;;;;;;;;;;;5.70;81.70;;;;;;5036329;28;19908;-79
2021/01/08 08:39:34;;;;;;;;;;;5.70;81.70;;;;;;5037699;28;19915;-79
2021/01/08 08:42:00;;;;;;;;;;;5.70;81.70;;;;;;5023330;28;20269;-82
2021/01/08 08:44:26;;;;;;;;;;;5.70;81.70;;;;;;5052270;28;19916;-78
2021/01/08 08:46:55;;;;;;;;;;;5.70;81.70;;;;;;5052638;28;20375;-79
2021/01/08 08:49:25;;;;;;;;;;;5.70;81.70;;;;;;5024717;28;19908;-80
2021/01/08 08:51:54;;;;;;;;;;;5.70;81.70;;;;;;5030008;28;19923;-80
2021/01/08 08:54:20;;;;;;;;;;;5.70;81.80;;;;;;5044730;28;19920;-79
2021/01/08 08:56:56;;;;;;;;;;;5.80;81.80;;;;;;5049631;28;19913;-79
2021/01/08 08:59:38;;;;;;;;;;;5.70;81.70;;;;;;5040595;28;19959;-81
2021/01/08 09:02:04;;;;;;;;;;;5.70;81.70;;;;;;5046504;28;19909;-79
2021/01/08 09:04:30;;;;;;;;;;;5.80;81.80;;;;;;5031652;28;20019;-79
2021/01/08 09:06:56;;;;;;;;;;;5.70;81.70;;;;;;5051706;28;19931;-80
2021/01/08 09:09:23;;;;;;;;;;;5.70;81.70;;;;;;5029202;28;19909;-79
2021/01/08 09:12:04;;;;;;;;;;;5.80;81.80;;;;;;5046072;28;19912;-79
2021/01/08 09:14:31;;;;;;;;;;;5.70;81.70;;;;;;5036523;28;19915;-78
2021/01/08 09:17:02;;;;;;;;;;;5.70;81.70;;;;;;5037030;28;19905;-79
2021/01/08 09:19:32;;;;;;;;;;;5.70;81.70;;;;;;5033587;28;19909;-80
2021/01/08 09:21:58;;;;;;;;;;;5.80;81.70;;;;;;5043583;28;19952;-78
2021/01/08 09:24:31;;;;;;;;;;;5.80;81.70;;;;;;5032878;28;19909;-78
2021/01/08 09:27:00;;;;;;;;;;;5.80;81.70;;;;;;5032576;28;19916;-78
2021/01/08 09:29:28;;;;;;;;;;;5.80;81.70;;;;;;5044811;28;19920;-79
2021/01/08 09:31:54;;;;;;;;;;;5.80;81.70;;;;;;5051956;28;19912;-80
2021/01/08 09:34:21;;;;;;;;;;;5.80;81.70;;;;;;5037431;28;19916;-79
2021/01/08 09:36:47;;;;;;;;;;;5.80;81.70;;;;;;5039211;28;19913;-83
2021/01/08 09:39:13;;;;;;;;;;;5.80;81.70;;;;;;5035164;28;20322;-80
2021/01/08 09:41:40;;;;;;;;;;;5.80;81.70;;;;;;5034406;28;20019;-78
2021/01/08 09:44:07;;;;;;;;;;;5.80;81.70;;;;;;5051479;28;19917;-78
2021/01/08 09:46:52;;;;;;;;;;;5.80;81.70;;;;;;5032803;28;19908;-79
2021/01/08 09:49:18;;;;;;;;;;;5.80;81.70;;;;;;5031776;28;19913;-78
2021/01/08 09:51:43;;;;;;;;;;;5.80;81.70;;;;;;5033858;28;20522;-77
2021/01/08 09:54:10;;;;;;;;;;;5.80;81.70;;;;;;5031281;28;20397;-78
2021/01/08 09:56:36;;;;;;;;;;;5.80;81.70;;;;;;5033964;28;19913;-78
2021/01/08 09:59:12;;;;;;;;;;;5.80;81.70;;;;;;5051235;28;20272;-78
2021/01/08 10:01:41;;;;;;;;;;;5.80;81.70;;;;;;5052946;28;19915;-78
2021/01/08 10:04:07;;;;;;;;;;;5.80;81.80;;;;;;5044325;28;20396;-78
2021/01/08 10:06:33;;;;;;;;;;;5.90;81.80;;;;;;5032717;28;19913;-79
2021/01/08 10:09:02;;;;;;;;;;;5.80;81.70;;;;;;5046313;28;20019;-77
2021/01/08 10:11:28;;;;;;;;;;;5.80;81.70;;;;;;5031899;28;20428;-79
2021/01/08 10:14:00;;;;;;;;;;;5.90;81.70;;;;;;5048668;28;20004;-77
2021/01/08 10:16:35;;;;;;;;;;;5.90;81.70;;;;;;5052691;28;19916;-76
2021/01/08 10:19:07;;;;;;;;;;;5.90;81.70;;;;;;5039030;28;20008;-77
2021/01/08 10:21:40;;;;;;;;;;;5.90;81.70;;;;;;5043448;28;19999;-76
2021/01/08 10:24:06;;;;;;;;;;;5.90;81.70;;;;;;5055083;28;19912;-77
2021/01/08 10:26:32;;;;;;;;;;;5.90;81.70;;;;;;5004912;28;19932;-77
2021/01/08 10:28:58;;;;;;;;;;;5.90;81.70;;;;;;5048055;28;19917;-77
2021/01/08 10:31:24;;;;;;;;;;;5.90;81.70;;;;;;5037813;28;19916;-77
2021/01/08 10:33:50;;;;;;;;;;;5.90;81.70;;;;;;5054585;28;19920;-77
2021/01/08 10:36:15;;;;;;;;;;;6.00;81.80;;;;;;5055844;28;19913;-77
2021/01/08 10:38:42;;;;;;;;;;;6.00;81.70;;;;;;5055699;28;19978;-77
2021/01/08 10:41:08;;;;;;;;;;;6.00;81.70;;;;;;5056036;28;19905;-78
2021/01/08 10:43:34;;;;;;;;;;;6.00;81.70;;;;;;5038941;28;19913;-76
2021/01/08 10:46:02;;;;;;;;;;;6.00;81.70;;;;;;5044659;28;20369;-77
2021/01/08 10:48:28;;;;;;;;;;;6.00;81.70;;;;;;5054717;28;19912;-77
2021/01/08 10:50:53;;;;;;;;;;;6.00;81.70;;;;;;5054511;28;19962;-82
2021/01/08 10:53:19;;;;;;;;;;;6.00;82.30;;;;;;5038774;28;20003;-80
2021/01/08 10:55:46;;;;;;;;;;;6.00;81.80;;;;;;5036706;28;20664;-77
2021/01/08 10:58:11;;;;;;;;;;;6.10;81.70;;;;;;5037808;28;19963;-77
2021/01/08 11:00:37;;;;;;;;;;;6.10;81.70;;;;;;5052561;28;19905;-77
2021/01/08 11:03:03;;;;;;;;;;;6.10;81.70;;;;;;5042944;28;19920;-77
2021/01/08 11:05:30;;;;;;;;;;;6.10;81.70;;;;;;5031901;28;19959;-79
2021/01/08 11:07:55;;;;;;;;;;;6.10;81.70;;;;;;5044907;28;19917;-78
2021/01/08 11:10:21;;;;;;;;;;;6.10;81.70;;;;;;5037405;28;19998;-77
2021/01/08 11:12:46;;;;;;;;;;;6.20;81.70;;;;;;5053663;28;19942;-77
2021/01/08 11:15:12;;;;;;;;;;;6.20;81.70;;;;;;5044335;28;19952;-81
2021/01/08 11:17:38;;;;;;;;;;;6.20;81.70;;;;;;5029676;28;20037;-78
2021/01/08 11:20:04;;;;;;;;;;;6.20;81.60;;;;;;5046855;28;19909;-76
2021/01/08 11:22:29;;;;;;;;;;;6.20;81.60;;;;;;5046991;28;19920;-76
2021/01/08 11:24:55;;;;;;;;;;;6.20;81.70;;;;;;5045074;28;20391;-79
2021/01/08 11:27:21;;;;;;;;;;;6.20;81.60;;;;;;5051553;28;19913;-77
2021/01/08 11:29:47;;;;;;;;;;;6.30;81.70;;;;;;5068102;28;19913;-76
2021/01/08 11:32:13;;;;;;;;;;;6.20;81.60;;;;;;5053017;28;19915;-76
2021/01/08 11:34:39;;;;;;;;;;;6.30;81.70;;;;;;5039841;28;20031;-76
2021/01/08 11:37:08;;;;;;;;;;;6.30;81.70;;;;;;5028389;28;20391;-76
2021/01/08 11:39:34;;;;;;;;;;;6.30;81.60;;;;;;5034159;28;19913;-76
2021/01/08 11:42:00;;;;;;;;;;;6.30;81.60;;;;;;5033854;28;20353;-76
2021/01/08 11:44:25;;;;;;;;;;;6.30;81.60;;;;;;5035557;28;19904;-76
2021/01/08 11:46:51;;;;;;;;;;;6.30;81.60;;;;;;5042519;28;20415;-76
2021/01/08 11:49:17;;;;;;;;;;;6.30;81.60;;;;;;5054788;28;20264;-76
2021/01/08 11:51:43;;;;;;;;;;;6.40;81.60;;;;;;5037642;28;19909;-77
2021/01/08 11:54:09;;;;;;;;;;;6.40;81.60;;;;;;5033258;28;19921;-76
2021/01/08 11:56:34;;;;;;;;;;;6.40;81.60;;;;;;5047552;28;19934;-76
2021/01/08 11:59:03;;;;;;;;;;;6.40;81.60;;;;;;5020819;28;19913;-84
2021/01/08 12:01:29;;;;;;;;;;;6.40;81.60;;;;;;5039664;28;19905;-76
2021/01/08 12:03:55;;;;;;;;;;;6.40;81.50;;;;;;5040309;28;19935;-76
2021/01/08 12:06:25;;;;;;;;;;;6.40;81.50;;;;;;5053147;28;19995;-76
2021/01/08 12:08:51;;;;;;;;;;;6.40;81.50;;;;;;5036485;28;19916;-76
2021/01/08 12:11:16;;;;;;;;;;;6.50;81.60;;;;;;5042896;28;20373;-76
2021/01/08 12:13:42;;;;;;;;;;;6.50;81.60;;;;;;5041014;28;20000;-76
2021/01/08 12:16:08;;;;;;;;;;;6.50;81.60;;;;;;5032993;28;20368;-76
2021/01/08 12:18:34;;;;;;;;;;;6.50;81.50;;;;;;5027630;28;20042;-76
2021/01/08 12:20:59;;;;;;;;;;;6.50;81.50;;;;;;5023094;28;19920;-75
2021/01/08 12:23:25;;;;;;;;;;;6.50;81.50;;;;;;5048200;28;19912;-78
2021/01/08 12:25:51;;;;;;;;;;;6.50;81.50;;;;;;5038949;28;19913;-76
2021/01/08 12:28:16;;;;;;;;;;;6.50;81.50;;;;;;5029549;28;20019;-75
2021/01/08 12:30:42;;;;;;;;;;;6.60;82.20;;;;;;5033972;28;20300;-76
2021/01/08 12:33:08;;;;;;;;;;;6.60;81.60;;;;;;5039619;28;19959;-76
2021/01/08 12:35:34;;;;;;;;;;;6.60;81.50;;;;;;5033396;28;19917;-76
2021/01/08 12:37:59;;;;;;;;;;;6.60;81.50;;;;;;5035137;28;19909;-76
2021/01/08 12:40:25;;;;;;;;;;;6.60;81.50;;;;;;5032911;28;19956;-75
2021/01/08 12:42:54;;;;;;;;;;;6.60;81.50;;;;;;5047447;28;19911;-76
2021/01/08 12:45:20;;;;;;;;;;;6.60;81.50;;;;;;5033844;28;19912;-76
2021/01/08 12:47:46;;;;;;;;;;;6.60;81.50;;;;;;5045598;28;19912;-76
2021/01/08 12:50:12;;;;;;;;;;;6.60;81.50;;;;;;5038613;28;19996;-77
2021/01/08 12:52:37;;;;;;;;;;;6.70;81.60;;;;;;5025478;28;19905;-80
2021/01/08 12:55:03;;;;;;;;;;;6.70;81.60;;;;;;5032561;28;19991;-76
2021/01/08 12:57:29;;;;;;;;;;;6.70;81.50;;;;;;5030041;28;20255;-76
2021/01/08 12:59:55;;;;;;;;;;;6.70;81.50;;;;;;5035630;28;19970;-76
2021/01/08 13:02:21;;;;;;;;;;;6.70;81.50;;;;;;5052043;28;19911;-77
2021/01/08 13:04:46;;;;;;;;;;;6.70;81.50;;;;;;5035563;28;19912;-76
2021/01/08 13:07:12;;;;;;;;;;;6.70;81.50;;;;;;5053009;28;20354;-76
2021/01/08 13:09:37;;;;;;;;;;;6.70;81.40;;;;;;5042937;28;19919;-76
2021/01/08 13:12:03;;;;;;;;;;;6.80;81.50;;;;;;5031607;28;19920;-76
2021/01/08 13:14:29;;;;;;;;;;;6.80;81.50;;;;;;5032158;28;20254;-76
2021/01/08 13:16:56;;;;;;;;;;;6.80;81.40;;;;;;5034713;28;20007;-77
2021/01/08 13:19:22;;;;;;;;;;;6.80;81.40;;;;;;5022476;28;19955;-77
2021/01/08 13:21:48;;;;;;;;;;;6.80;81.40;;;;;;5032202;28;19909;-77
2021/01/08 13:24:14;;;;;;;;;;;6.80;81.40;;;;;;5032854;28;19909;-77
2021/01/08 13:26:40;;;;;;;;;;;6.80;81.40;;;;;;5046530;28;19912;-77
2021/01/08 13:29:05;;;;;;;;;;;6.80;81.40;;;;;;5028557;28;20431;-78
2021/01/08 13:31:31;;;;;;;;;;;6.80;81.40;;;;;;5052410;28;19913;-78
2021/01/08 13:33:57;;;;;;;;;;;6.80;81.40;;;;;;5052126;28;19905;-79
2021/01/08 13:36:23;;;;;;;;;;;6.80;81.50;;;;;;5031600;28;20257;-77
2021/01/08 13:38:49;;;;;;;;;;;6.80;81.50;;;;;;5048467;28;20349;-78
2021/01/08 13:41:15;;;;;;;;;;;6.80;81.50;;;;;;5042136;28;19920;-78
2021/01/08 13:43:40;;;;;;;;;;;6.90;81.50;;;;;;5039009;28;19915;-77
2021/01/08 13:46:09;;;;;;;;;;;6.80;81.40;;;;;;5051683;28;20399;-78
2021/01/08 13:48:36;;;;;;;;;;;6.90;81.50;;;;;;5031211;28;20400;-78
2021/01/08 13:51:01;;;;;;;;;;;6.90;81.50;;;;;;5045625;28;19948;-79
2021/01/08 13:53:31;;;;;;;;;;;6.90;81.50;;;;;;5025152;28;20404;-77
2021/01/08 13:55:57;;;;;;;;;;;6.80;81.40;;;;;;5040751;28;20288;-79
2021/01/08 13:58:22;;;;;;;;;;;6.90;81.50;;;;;;5040593;28;20007;-78
2021/01/08 14:00:48;;;;;;;;;;;6.90;81.50;;;;;;5034920;28;19913;-78
2021/01/08 14:03:13;;;;;;;;;;;6.90;81.50;;;;;;5008699;28;19932;-80
2021/01/08 14:05:40;;;;;;;;;;;6.90;81.50;;;;;;5034613;28;20369;-78
2021/01/08 14:08:06;;;;;;;;;;;6.90;81.50;;;;;;5035128;28;19975;-78
2021/01/08 14:10:31;;;;;;;;;;;6.90;81.50;;;;;;5034509;28;19921;-77
2021/01/08 14:12:57;;;;;;;;;;;6.90;81.40;;;;;;5007335;28;19967;-77
2021/01/08 14:15:23;;;;;;;;;;;6.90;81.40;;;;;;5037520;28;19913;-77
2021/01/08 14:17:48;;;;;;;;;;;6.90;81.50;;;;;;5033928;28;19908;-77
2021/01/08 14:20:14;;;;;;;;;;;6.90;81.50;;;;;;5031077;28;19913;-81
2021/01/08 14:22:42;;;;;;;;;;;6.90;81.50;;;;;;5029960;28;19952;-78
2021/01/08 14:25:08;;;;;;;;;;;6.90;81.50;;;;;;5043030;28;19909;-77
2021/01/08 14:27:34;;;;;;;;;;;6.90;81.50;;;;;;5031523;28;19959;-77